createdAt,value
2022-08-07T00:00:42.507Z,15.6
2022-08-07T00:02:36.164Z,15.6
2022-08-07T00:02:44.540Z,15.8
2022-08-07T00:03:47.411Z,15.8
2022-08-07T00:04:42.590Z,15.8
2022-08-07T00:05:42.505Z,15.8
2022-08-07T00:06:51.732Z,15.6
2022-08-07T00:07:42.506Z,15.7
2022-08-07T00:08:44.377Z,15.8
2022-08-07T00:09:50.182Z,15.8
2022-08-07T00:10:47.620Z,16
2022-08-07T00:11:48.094Z,16
2022-08-07T00:12:57.614Z,15.9
2022-08-07T00:13:44.806Z,15.9
2022-08-07T00:14:44.188Z,15.8
2022-08-07T00:15:46.309Z,15.8
2022-08-07T00:16:42.495Z,15.8
2022-08-07T00:17:42.511Z,15.8
2022-08-07T00:18:42.505Z,15.8
2022-08-07T00:20:01.491Z,15.8
2022-08-07T00:20:42.509Z,15.7
2022-08-07T00:21:56.041Z,15.6
2022-08-07T00:22:42.505Z,15.6
2022-08-07T00:23:42.518Z,15.8
2022-08-07T00:24:42.516Z,15.8
2022-08-07T00:25:42.511Z,15.7
2022-08-07T00:26:59.358Z,15.7
2022-08-07T00:27:52.580Z,15.7
2022-08-07T00:28:46.170Z,15.8
2022-08-07T00:29:42.522Z,15.9
2022-08-07T00:30:42.500Z,16
2022-08-07T00:31:42.709Z,16.1
2022-08-07T00:32:42.519Z,16.1
2022-08-07T00:33:42.515Z,16.1
2022-08-07T00:34:42.507Z,16.2
2022-08-07T00:35:46.502Z,16.1
2022-08-07T00:36:43.018Z,16.1
2022-08-07T00:37:48.366Z,16.1
2022-08-07T00:38:42.531Z,16
2022-08-07T00:39:45.196Z,15.8
2022-08-07T00:40:42.506Z,15.6
2022-08-07T00:41:45.318Z,15.5
2022-08-07T00:42:42.505Z,15.5
2022-08-07T00:43:59.195Z,15.6
2022-08-07T00:44:42.502Z,16.1
2022-08-07T00:45:42.542Z,16.3
2022-08-07T00:46:42.528Z,16.4
2022-08-07T00:48:09.912Z,16.2
2022-08-07T00:48:42.645Z,15.9
2022-08-07T00:50:20.194Z,15.8
2022-08-07T00:50:50.269Z,15.6
2022-08-07T00:51:56.803Z,15.6
2022-08-07T00:52:42.509Z,15.5
2022-08-07T00:53:50.113Z,15.5
2022-08-07T00:54:42.517Z,15.5
2022-08-07T00:56:00.431Z,15.5
2022-08-07T00:56:42.525Z,15.4
2022-08-07T00:57:44.518Z,15.3
2022-08-07T00:58:42.527Z,15.3
2022-08-07T00:59:42.507Z,15.3
2022-08-07T01:00:53.929Z,15.2
2022-08-07T01:01:44.505Z,15.1
2022-08-07T01:02:42.595Z,15
2022-08-07T01:03:56.150Z,15
2022-08-07T01:04:43.499Z,15.1
2022-08-07T01:05:42.517Z,15
2022-08-07T01:06:42.598Z,15
2022-08-07T01:07:42.500Z,15
2022-08-07T01:08:51.278Z,15.1
2022-08-07T01:10:04.433Z,15.1
2022-08-07T01:10:47.680Z,15
2022-08-07T01:12:53.328Z,15
2022-08-07T01:13:56.053Z,14.9
2022-08-07T01:14:57.165Z,14.9
2022-08-07T01:16:04.948Z,14.8
2022-08-07T01:16:52.811Z,14.8
2022-08-07T01:17:42.557Z,14.9
2022-08-07T01:18:42.515Z,14.8
2022-08-07T01:19:44.380Z,14.7
2022-08-07T01:20:43.070Z,14.6
2022-08-07T01:21:42.509Z,14.6
2022-08-07T01:22:54.027Z,14.6
2022-08-07T01:23:45.007Z,14.7
2022-08-07T01:24:42.526Z,14.7
2022-08-07T01:25:55.400Z,14.6
2022-08-07T01:26:42.523Z,14.5
2022-08-07T01:27:51.499Z,14.5
2022-08-07T01:28:46.370Z,14.7
2022-08-07T01:29:42.552Z,14.7
2022-08-07T01:30:42.504Z,14.7
2022-08-07T01:31:48.196Z,14.8
2022-08-07T01:32:42.509Z,14.7
2022-08-07T01:33:53.509Z,14.6
2022-08-07T01:34:42.521Z,14.7
2022-08-07T01:35:54.366Z,14.8
2022-08-07T01:36:44.113Z,14.7
2022-08-07T01:37:42.534Z,14.6
2022-08-07T01:38:42.530Z,14.5
2022-08-07T01:39:46.976Z,14.4
2022-08-07T01:40:42.506Z,14.3
2022-08-07T01:42:07.493Z,14.2
2022-08-07T01:42:57.272Z,14.1
2022-08-07T01:43:42.533Z,14.2
2022-08-07T01:44:42.533Z,14.2
2022-08-07T01:45:42.540Z,14.1
2022-08-07T01:46:42.605Z,14
2022-08-07T01:48:17.626Z,14
2022-08-07T01:48:46.748Z,14
2022-08-07T01:49:42.527Z,14
2022-08-07T01:50:43.189Z,13.9
2022-08-07T01:52:01.939Z,13.9
2022-08-07T01:52:49.794Z,14
2022-08-07T01:54:08.759Z,14
2022-08-07T01:54:42.530Z,14.2
2022-08-07T01:55:42.525Z,14.3
2022-08-07T01:56:42.526Z,14.3
2022-08-07T01:58:01.325Z,14.3
2022-08-07T01:58:45.229Z,14.3
2022-08-07T01:59:43.795Z,14.3
2022-08-07T02:00:49.018Z,14.3
2022-08-07T02:01:59.922Z,14.2
2022-08-07T02:03:19.107Z,14.3
2022-08-07T02:03:48.708Z,14.2
2022-08-07T02:04:56.286Z,14.1
2022-08-07T02:05:47.613Z,14.2
2022-08-07T02:06:42.533Z,14.1
2022-08-07T02:07:50.134Z,14.1
2022-08-07T02:08:42.587Z,14.1
2022-08-07T02:09:52.721Z,14.1
2022-08-07T02:10:42.533Z,14.2
2022-08-07T02:12:05.047Z,14.2
2022-08-07T02:12:42.542Z,14
2022-08-07T02:13:57.438Z,14.1
2022-08-07T02:14:42.529Z,14.1
2022-08-07T02:15:42.551Z,14.2
2022-08-07T02:16:42.528Z,14.1
2022-08-07T02:17:42.526Z,14.2
2022-08-07T02:18:47.299Z,14.2
2022-08-07T02:20:03.990Z,14.2
2022-08-07T02:20:42.524Z,14.3
2022-08-07T02:21:55.858Z,14.2
2022-08-07T02:22:43.822Z,14.2
2022-08-07T02:23:43.205Z,14.3
2022-08-07T02:24:44.619Z,14.3
2022-08-07T02:26:26.679Z,14.5
2022-08-07T02:26:42.540Z,14.5
2022-08-07T02:27:42.528Z,14.5
2022-08-07T02:28:42.538Z,14.3
2022-08-07T02:30:42.529Z,14.2
2022-08-07T02:31:42.526Z,14.2
2022-08-07T02:33:00.752Z,14.2
2022-08-07T02:34:03.241Z,14.2
2022-08-07T02:34:48.831Z,14.1
2022-08-07T02:36:30.727Z,14
2022-08-07T02:36:42.534Z,14
2022-08-07T02:37:43.868Z,13.9
2022-08-07T02:38:50.795Z,14
2022-08-07T02:40:02.420Z,14.1
2022-08-07T02:40:42.579Z,14
2022-08-07T02:41:50.579Z,14.1
2022-08-07T02:42:42.522Z,13.9
2022-08-07T02:43:42.530Z,13.8
2022-08-07T02:44:47.904Z,13.7
2022-08-07T02:46:00.876Z,13.7
2022-08-07T02:46:46.707Z,13.7
2022-08-07T02:47:45.548Z,13.6
2022-08-07T02:48:47.182Z,13.4
2022-08-07T02:49:58.722Z,13.5
2022-08-07T02:50:42.536Z,13.5
2022-08-07T02:51:51.905Z,13.5
2022-08-07T02:52:44.078Z,13.3
2022-08-07T02:53:42.518Z,13.4
2022-08-07T02:54:42.533Z,13.5
2022-08-07T02:56:03.251Z,13.5
2022-08-07T02:56:42.558Z,13.3
2022-08-07T02:57:42.529Z,13.5
2022-08-07T02:58:47.385Z,13.5
2022-08-07T02:59:42.521Z,13.6
2022-08-07T03:00:46.990Z,13.5
2022-08-07T03:01:42.676Z,13.5
2022-08-07T03:02:55.056Z,13.5
2022-08-07T03:03:49.695Z,13.5
2022-08-07T03:04:42.540Z,13.6
2022-08-07T03:05:42.530Z,13.5
2022-08-07T03:06:44.614Z,13.6
2022-08-07T03:08:04.565Z,13.7
2022-08-07T03:08:42.540Z,13.8
2022-08-07T03:09:44.644Z,13.9
2022-08-07T03:10:46.437Z,13.9
2022-08-07T03:11:52.605Z,13.7
2022-08-07T03:12:42.541Z,13.8
2022-08-07T03:13:49.788Z,13.9
2022-08-07T03:14:42.528Z,13.9
2022-08-07T03:15:56.792Z,13.9
2022-08-07T03:16:42.540Z,13.7
2022-08-07T03:17:54.045Z,13.8
2022-08-07T03:18:44.158Z,13.9
2022-08-07T03:19:42.545Z,14.1
2022-08-07T03:20:42.538Z,14
2022-08-07T03:21:45.608Z,13.9
2022-08-07T03:22:42.530Z,13.9
2022-08-07T03:24:17.850Z,14
2022-08-07T03:24:42.549Z,13.9
2022-08-07T03:25:42.545Z,13.8
2022-08-07T03:26:51.090Z,13.7
2022-08-07T03:27:59.025Z,13.8
2022-08-07T03:28:42.861Z,13.9
2022-08-07T03:29:46.071Z,13.9
2022-08-07T03:30:42.537Z,13.8
2022-08-07T03:31:46.557Z,13.7
2022-08-07T03:32:49.011Z,13.8
2022-08-07T03:33:42.536Z,13.8
2022-08-07T03:34:47.584Z,13.7
2022-08-07T03:35:44.214Z,13.8
2022-08-07T03:36:42.528Z,13.9
2022-08-07T03:37:46.531Z,13.8
2022-08-07T03:38:42.534Z,14.1
2022-08-07T03:39:59.039Z,14.2
2022-08-07T03:40:44.363Z,14.1
2022-08-07T03:41:47.455Z,14.1
2022-08-07T03:42:42.535Z,14
2022-08-07T03:43:56.758Z,13.9
2022-08-07T03:44:42.575Z,13.7
2022-08-07T03:45:43.697Z,13.5
2022-08-07T03:47:13.078Z,13.4
2022-08-07T03:47:45.312Z,13.3
2022-08-07T03:48:45.479Z,13.4
2022-08-07T03:49:42.552Z,13.4
2022-08-07T03:50:43.267Z,13.4
2022-08-07T03:51:47.154Z,13.2
2022-08-07T03:54:01.952Z,13.3
2022-08-07T03:54:54.285Z,13.4
2022-08-07T03:55:57.371Z,13.3
2022-08-07T03:56:42.544Z,13.3
2022-08-07T03:58:34.773Z,13.4
2022-08-07T03:59:07.864Z,13.3
2022-08-07T03:59:46.547Z,13.2
2022-08-07T04:00:46.168Z,13.2
2022-08-07T04:01:43.296Z,13
2022-08-07T04:02:42.542Z,13
2022-08-07T04:03:53.398Z,12.9
2022-08-07T04:04:42.596Z,13
2022-08-07T04:05:42.653Z,13.1
2022-08-07T04:06:42.573Z,13
2022-08-07T04:07:45.179Z,12.9
2022-08-07T04:08:42.547Z,13
2022-08-07T04:09:45.057Z,12.9
2022-08-07T04:10:42.615Z,12.9
2022-08-07T04:12:26.748Z,12.9
2022-08-07T04:12:42.559Z,12.7
2022-08-07T04:14:10.327Z,12.8
2022-08-07T04:14:43.856Z,13
2022-08-07T04:15:42.551Z,13.1
2022-08-07T04:16:43.106Z,12.9
2022-08-07T04:18:31.022Z,13.1
2022-08-07T04:18:59.028Z,13.1
2022-08-07T04:19:51.859Z,13
2022-08-07T04:20:43.097Z,13
2022-08-07T04:21:48.088Z,12.8
2022-08-07T04:22:53.411Z,12.9
2022-08-07T04:24:01.954Z,12.9
2022-08-07T04:24:42.545Z,13.1
2022-08-07T04:25:42.531Z,13
2022-08-07T04:26:43.597Z,13.1
2022-08-07T04:27:44.169Z,13
2022-08-07T04:28:42.540Z,12.9
2022-08-07T04:29:58.312Z,13
2022-08-07T04:30:55.189Z,13.1
2022-08-07T04:32:03.353Z,13.3
2022-08-07T04:32:44.774Z,13.2
2022-08-07T04:33:42.551Z,13.2
2022-08-07T04:34:42.542Z,13.3
2022-08-07T04:35:42.555Z,13.4
2022-08-07T04:36:42.562Z,13.5
2022-08-07T04:38:03.939Z,13.4
2022-08-07T04:38:42.552Z,13.4
2022-08-07T04:39:47.935Z,13.5
2022-08-07T04:40:51.198Z,13.5
2022-08-07T04:41:42.548Z,13.4
2022-08-07T04:42:42.574Z,13.4
2022-08-07T04:44:12.906Z,13.1
2022-08-07T04:44:54.480Z,13.2
2022-08-07T04:45:58.057Z,13.2
2022-08-07T04:47:04.202Z,13.2
2022-08-07T04:48:01.788Z,13.1
2022-08-07T04:48:44.770Z,13.2
2022-08-07T04:49:42.555Z,13
2022-08-07T04:50:42.556Z,13.2
2022-08-07T04:51:42.564Z,13.3
2022-08-07T04:52:51.325Z,13.2
2022-08-07T04:54:05.703Z,13.2
2022-08-07T04:54:42.557Z,13.3
2022-08-07T04:58:10.695Z,13.5
2022-08-07T04:58:11.334Z,13.4
2022-08-07T04:58:11.441Z,13.4
2022-08-07T05:00:12.396Z,13.7
2022-08-07T05:00:42.610Z,13.9
2022-08-07T05:01:42.564Z,14
2022-08-07T05:02:43.733Z,14.1
2022-08-07T05:04:07.037Z,14.2
2022-08-07T05:04:43.896Z,14.2
2022-08-07T05:05:52.765Z,14.4
2022-08-07T05:06:43.625Z,14.5
2022-08-07T05:07:48.236Z,14.5
2022-08-07T05:08:59.939Z,14.6
2022-08-07T05:09:45.430Z,14.5
2022-08-07T05:10:42.554Z,14.5
2022-08-07T05:11:56.800Z,14.6
2022-08-07T05:12:46.148Z,14.6
2022-08-07T05:14:52.900Z,14.6
2022-08-07T05:14:53.824Z,14.6
2022-08-07T05:15:42.555Z,14.7
2022-08-07T05:16:45.267Z,14.7
2022-08-07T05:17:51.493Z,14.8
2022-08-07T05:18:42.551Z,14.8
2022-08-07T05:19:44.692Z,14.9
2022-08-07T05:20:42.764Z,14.9
2022-08-07T05:21:59.563Z,15
2022-08-07T05:22:42.565Z,15.1
2022-08-07T05:23:42.585Z,15.3
2022-08-07T05:24:42.563Z,15.4
2022-08-07T05:26:13.607Z,15.5
2022-08-07T05:26:42.563Z,15.5
2022-08-07T05:28:03.251Z,15.6
2022-08-07T05:28:46.649Z,15.5
2022-08-07T05:29:51.341Z,15.6
2022-08-07T05:30:42.552Z,15.7
2022-08-07T05:31:51.083Z,15.8
2022-08-07T05:32:42.547Z,15.9
2022-08-07T05:33:42.574Z,15.9
2022-08-07T05:34:42.570Z,15.9
2022-08-07T05:35:42.637Z,15.8
2022-08-07T05:36:42.570Z,15.8
2022-08-07T05:37:42.556Z,15.8
2022-08-07T05:39:01.140Z,15.7
2022-08-07T05:40:06.853Z,15.6
2022-08-07T05:40:51.348Z,15.8
2022-08-07T05:42:01.634Z,15.9
2022-08-07T05:42:42.568Z,15.9
2022-08-07T05:44:01.211Z,15.9
2022-08-07T05:44:52.951Z,15.9
2022-08-07T05:45:46.744Z,15.7
2022-08-07T05:46:42.882Z,15.7
2022-08-07T05:48:02.475Z,15.7
2022-08-07T05:48:58.444Z,15.8
2022-08-07T05:49:42.551Z,15.9
2022-08-07T05:50:43.249Z,16.1
2022-08-07T05:51:42.575Z,16.1
2022-08-07T05:52:42.580Z,16
2022-08-07T05:54:09.680Z,16
2022-08-07T05:54:44.572Z,16.1
2022-08-07T05:56:03.120Z,16
2022-08-07T05:56:42.568Z,16.1
2022-08-07T05:57:42.677Z,16.2
2022-08-07T05:58:52.405Z,16.3
2022-08-07T05:59:56.233Z,16.5
2022-08-07T06:00:42.549Z,16.5
2022-08-07T06:01:42.597Z,16.5
2022-08-07T06:02:42.602Z,16.6
2022-08-07T06:03:53.195Z,16.6
2022-08-07T06:04:42.660Z,16.6
2022-08-07T06:05:42.568Z,16.6
2022-08-07T06:06:46.146Z,16.5
2022-08-07T06:08:13.790Z,16.5
2022-08-07T06:08:42.766Z,16.6
2022-08-07T06:09:45.098Z,16.7
2022-08-07T06:10:42.635Z,16.8
2022-08-07T06:11:42.566Z,17
2022-08-07T06:12:42.645Z,17.1
2022-08-07T06:14:12.115Z,17.2
2022-08-07T06:14:42.598Z,17.4
2022-08-07T06:15:42.939Z,17.5
2022-08-07T06:16:42.576Z,17.5
2022-08-07T06:17:42.585Z,17.4
2022-08-07T06:18:42.993Z,17.4
2022-08-07T06:19:51.858Z,17.5
2022-08-07T06:20:49.904Z,17.5
2022-08-07T06:22:14.759Z,17.4
2022-08-07T06:23:01.795Z,17.5
2022-08-07T06:24:37.199Z,17.6
2022-08-07T06:24:52.772Z,17.5
2022-08-07T06:25:54.859Z,17.6
2022-08-07T06:26:42.567Z,17.6
2022-08-07T06:27:44.106Z,17.5
2022-08-07T06:28:42.588Z,17.6
2022-08-07T06:29:42.567Z,17.6
2022-08-07T06:30:45.825Z,17.5
2022-08-07T06:31:49.597Z,17.6
2022-08-07T06:32:42.570Z,17.7
2022-08-07T06:33:42.575Z,17.7
2022-08-07T06:34:45.292Z,17.8
2022-08-07T06:35:48.038Z,18
2022-08-07T06:36:42.561Z,17.9
2022-08-07T06:37:43.834Z,18
2022-08-07T06:38:58.374Z,18.2
2022-08-07T06:40:16.904Z,18.3
2022-08-07T06:40:46.033Z,18.2
2022-08-07T06:42:01.116Z,18.3
2022-08-07T06:42:42.587Z,18.3
2022-08-07T06:43:46.613Z,18.3
2022-08-07T06:44:42.578Z,18.3
2022-08-07T06:45:44.318Z,18.4
2022-08-07T06:46:42.558Z,18.4
2022-08-07T06:47:57.551Z,18.4
2022-08-07T06:48:44.716Z,18.4
2022-08-07T06:49:50.922Z,18.5
2022-08-07T06:50:43.315Z,18.6
2022-08-07T06:51:49.644Z,18.6
2022-08-07T06:52:42.579Z,18.6
2022-08-07T06:55:29.693Z,18.6
2022-08-07T06:55:32.352Z,18.7
2022-08-07T06:55:53.628Z,18.7
2022-08-07T06:56:48.825Z,18.8
2022-08-07T06:57:47.761Z,19
2022-08-07T07:00:11.911Z,19.1
2022-08-07T07:00:14.658Z,19
2022-08-07T07:00:42.663Z,19.1
2022-08-07T07:01:48.743Z,19.3
2022-08-07T07:02:54.313Z,19.3
2022-08-07T07:03:48.187Z,19.4
2022-08-07T07:04:43.574Z,19.2
2022-08-07T07:06:03.808Z,19.3
2022-08-07T07:07:00.228Z,19.3
2022-08-07T07:08:00.169Z,19.1
2022-08-07T07:08:46.613Z,19.2
2022-08-07T07:09:42.631Z,19.1
2022-08-07T07:10:54.730Z,19
2022-08-07T07:12:08.337Z,19
2022-08-07T07:12:48.861Z,19
2022-08-07T07:13:58.580Z,18.9
2022-08-07T07:14:42.575Z,18.9
2022-08-07T07:15:43.145Z,18.9
2022-08-07T07:16:50.002Z,19.1
2022-08-07T07:17:45.290Z,19.1
2022-08-07T07:18:48.146Z,19.3
2022-08-07T07:19:56.618Z,19.1
2022-08-07T07:20:42.583Z,19.1
2022-08-07T07:22:04.908Z,19.1
2022-08-07T07:22:50.960Z,19.2
2022-08-07T07:24:10.936Z,19.2
2022-08-07T07:24:43.120Z,19.4
2022-08-07T07:26:32.753Z,19.6
2022-08-07T07:26:51.927Z,19.5
2022-08-07T07:27:55.630Z,19.7
2022-08-07T07:29:38.424Z,19.9
2022-08-07T07:30:09.363Z,20
2022-08-07T07:30:42.584Z,20.2
2022-08-07T07:31:44.287Z,20.1
2022-08-07T07:32:42.744Z,20.2
2022-08-07T07:33:42.587Z,20.2
2022-08-07T07:34:42.581Z,20.2
2022-08-07T07:35:54.240Z,20.2
2022-08-07T07:36:42.604Z,20.3
2022-08-07T07:37:47.323Z,20.2
2022-08-07T07:38:43.425Z,20.3
2022-08-07T07:39:52.077Z,20.4
2022-08-07T07:40:42.592Z,20.5
2022-08-07T07:41:50.675Z,20.6
2022-08-07T07:42:42.597Z,20.7
2022-08-07T07:44:13.788Z,20.8
2022-08-07T07:44:42.591Z,20.9
2022-08-07T07:46:36.484Z,20.8
2022-08-07T07:46:54.199Z,20.5
2022-08-07T07:47:42.924Z,20.4
2022-08-07T07:48:42.590Z,20.6
2022-08-07T07:50:35.899Z,20.6
2022-08-07T07:50:42.591Z,20.7
2022-08-07T07:51:58.270Z,20.7
2022-08-07T07:52:42.592Z,20.7
2022-08-07T07:53:51.867Z,20.8
2022-08-07T07:54:44.176Z,20.6
2022-08-07T07:55:45.752Z,20.4
2022-08-07T07:56:42.582Z,20.4
2022-08-07T07:57:50.211Z,20.4
2022-08-07T07:58:42.601Z,20.8
2022-08-07T07:59:53.801Z,20.7
2022-08-07T08:00:42.582Z,20.6
2022-08-07T08:02:01.997Z,20.7
2022-08-07T08:03:01.150Z,20.8
2022-08-07T08:04:09.455Z,20.9
2022-08-07T08:04:42.658Z,21.2
2022-08-07T08:05:50.548Z,21.1
2022-08-07T08:06:51.997Z,21.1
2022-08-07T08:07:59.948Z,21.2
2022-08-07T08:08:42.704Z,21.3
2022-08-07T08:09:52.386Z,21.3
2022-08-07T08:10:42.590Z,21.2
2022-08-07T08:12:00.008Z,21.2
2022-08-07T08:12:59.219Z,21.2
2022-08-07T08:13:53.144Z,21.3
2022-08-07T08:14:42.611Z,21.3
2022-08-07T08:15:58.144Z,21.2
2022-08-07T08:16:42.602Z,21.4
2022-08-07T08:17:57.937Z,21.5
2022-08-07T08:18:42.598Z,21.5
2022-08-07T08:20:17.975Z,21.2
2022-08-07T08:20:43.492Z,21.1
2022-08-07T08:21:56.024Z,21.3
2022-08-07T08:22:54.162Z,21.2
2022-08-07T08:23:42.603Z,21
2022-08-07T08:24:45.683Z,20.9
2022-08-07T08:25:49.380Z,21.1
2022-08-07T08:26:42.602Z,21.2
2022-08-07T08:27:56.008Z,21.3
2022-08-07T08:28:44.735Z,21.2
2022-08-07T08:29:54.474Z,21.2
2022-08-07T08:30:51.162Z,21.1
2022-08-07T08:31:58.833Z,21.1
2022-08-07T08:32:42.616Z,20.9
2022-08-07T08:33:43.887Z,20.8
2022-08-07T08:34:42.672Z,21.2
2022-08-07T08:35:47.103Z,21.1
2022-08-07T08:36:42.600Z,20.8
2022-08-07T08:37:59.735Z,20.8
2022-08-07T08:38:42.606Z,20.9
2022-08-07T08:39:54.927Z,20.9
2022-08-07T08:40:43.899Z,20.9
2022-08-07T08:41:59.182Z,21.2
2022-08-07T08:42:42.609Z,21.5
2022-08-07T08:43:45.138Z,21.4
2022-08-07T08:44:44.654Z,21.4
2022-08-07T08:45:59.519Z,21.6
2022-08-07T08:46:45.023Z,21.3
2022-08-07T08:47:52.744Z,21
2022-08-07T08:48:42.624Z,21.1
2022-08-07T08:49:46.816Z,21
2022-08-07T08:50:42.614Z,21.2
2022-08-07T08:52:12.759Z,21.4
2022-08-07T08:52:53.606Z,21.5
2022-08-07T08:53:42.610Z,21.7
2022-08-07T08:54:42.610Z,21.6
2022-08-07T08:55:54.630Z,21.6
2022-08-07T08:56:47.696Z,22
2022-08-07T08:57:42.614Z,22.2
2022-08-07T08:58:42.636Z,22.3
2022-08-07T08:59:48.035Z,22.4
2022-08-07T09:00:42.786Z,22.2
2022-08-07T09:01:46.561Z,22.1
2022-08-07T09:02:42.687Z,22
2022-08-07T09:03:47.388Z,21.6
2022-08-07T09:04:42.601Z,21.5
2022-08-07T09:05:42.608Z,21.8
2022-08-07T09:06:42.787Z,22.1
2022-08-07T09:07:46.445Z,22.3
2022-08-07T09:08:42.617Z,22.5
2022-08-07T09:09:42.620Z,22.7
2022-08-07T09:10:44.264Z,22.9
2022-08-07T09:11:50.383Z,23
2022-08-07T09:12:42.601Z,22.9
2022-08-07T09:13:42.617Z,22.8
2022-08-07T09:14:50.552Z,22.5
2022-08-07T09:16:22.881Z,22.2
2022-08-07T09:16:42.641Z,22
2022-08-07T09:18:01.433Z,22
2022-08-07T09:18:42.604Z,22.4
2022-08-07T09:19:51.964Z,22.7
2022-08-07T09:20:42.617Z,22.9
2022-08-07T09:22:10.084Z,22.9
2022-08-07T09:24:31.522Z,23.1
2022-08-07T09:24:54.027Z,22.7
2022-08-07T09:24:59.037Z,22.9
2022-08-07T09:25:42.609Z,23.1
2022-08-07T09:26:47.643Z,23.4
2022-08-07T09:28:00.394Z,23.5
2022-08-07T09:30:01.318Z,23.7
2022-08-07T09:30:03.804Z,23.6
2022-08-07T09:30:44.202Z,23.6
2022-08-07T09:31:49.136Z,23.6
2022-08-07T09:32:42.635Z,23.5
2022-08-07T09:33:56.573Z,23.6
2022-08-07T09:34:42.609Z,23.2
2022-08-07T09:36:04.710Z,23.3
2022-08-07T09:36:43.127Z,23.4
2022-08-07T09:37:53.439Z,23.5
2022-08-07T09:38:42.633Z,23.6
2022-08-07T09:39:54.869Z,23.5
2022-08-07T09:40:42.629Z,23
2022-08-07T09:41:43.196Z,22.8
2022-08-07T09:42:42.628Z,22.7
2022-08-07T09:44:06.585Z,22.7
2022-08-07T09:45:03.398Z,22.9
2022-08-07T09:47:51.886Z,23.1
2022-08-07T09:47:52.710Z,23.3
2022-08-07T09:47:58.245Z,23.4
2022-08-07T09:48:55.873Z,23.3
2022-08-07T09:50:02.527Z,23.4
2022-08-07T09:50:42.632Z,23.4
2022-08-07T09:52:15.509Z,23.1
2022-08-07T09:52:42.617Z,22.9
2022-08-07T09:53:48.870Z,22.8
2022-08-07T09:54:42.616Z,22.9
2022-08-07T09:56:04.486Z,23.2
2022-08-07T09:56:42.641Z,23.3
2022-08-07T09:57:46.381Z,23.5
2022-08-07T09:58:42.650Z,23.8
2022-08-07T09:59:46.586Z,24
2022-08-07T10:00:42.698Z,24
2022-08-07T10:01:52.324Z,24.2
2022-08-07T10:02:53.704Z,24.3
2022-08-07T10:04:06.453Z,24.4
2022-08-07T10:04:46.139Z,24.6
2022-08-07T10:05:59.278Z,24.7
2022-08-07T10:06:42.636Z,24.6
2022-08-07T10:07:53.665Z,24.3
2022-08-07T10:08:42.624Z,23.8
2022-08-07T10:09:59.050Z,23.2
2022-08-07T10:12:01.104Z,23.2
2022-08-07T10:12:52.731Z,23.5
2022-08-07T10:14:00.144Z,23.7
2022-08-07T10:14:42.716Z,24
2022-08-07T10:15:44.281Z,24.2
2022-08-07T10:16:43.173Z,24.5
2022-08-07T10:18:00.271Z,24.7
2022-08-07T10:18:42.657Z,25
2022-08-07T10:19:42.638Z,25.2
2022-08-07T10:20:44.390Z,25
2022-08-07T10:22:14.756Z,24.7
2022-08-07T10:22:43.235Z,24.8
2022-08-07T10:24:05.544Z,24.6
2022-08-07T10:24:42.640Z,24.7
2022-08-07T10:25:43.542Z,24.8
2022-08-07T10:26:42.659Z,24.8
2022-08-07T10:27:46.507Z,25
2022-08-07T10:28:49.416Z,25
2022-08-07T10:29:45.642Z,25.1
2022-08-07T10:30:42.629Z,25
2022-08-07T10:31:45.184Z,24.9
2022-08-07T10:32:52.748Z,25
2022-08-07T10:34:05.741Z,25.2
2022-08-07T10:34:42.637Z,25
2022-08-07T10:35:55.229Z,25.1
2022-08-07T10:36:42.626Z,25.1
2022-08-07T10:38:00.948Z,25.2
2022-08-07T10:38:49.533Z,25
2022-08-07T10:40:02.838Z,25.2
2022-08-07T10:40:42.654Z,25.3
2022-08-07T10:41:51.537Z,24.8
2022-08-07T10:42:42.630Z,24.9
2022-08-07T10:43:42.656Z,24.8
2022-08-07T10:44:45.331Z,24.8
2022-08-07T10:45:44.964Z,24.8
2022-08-07T10:46:42.639Z,24.7
2022-08-07T10:47:53.906Z,24.7
2022-08-07T10:48:44.092Z,24.2
2022-08-07T10:49:45.289Z,24.2
2022-08-07T10:50:49.914Z,24.2
2022-08-07T10:52:01.590Z,24.1
2022-08-07T10:52:42.788Z,24
2022-08-07T10:53:44.709Z,24
2022-08-07T10:54:55.227Z,24
2022-08-07T10:55:42.661Z,24
2022-08-07T10:56:42.652Z,24.2
2022-08-07T10:57:42.651Z,24.5
2022-08-07T10:58:42.644Z,24.6
2022-08-07T10:59:47.463Z,24.6
2022-08-07T11:00:50.193Z,24.7
2022-08-07T11:01:51.597Z,25
2022-08-07T11:02:42.709Z,25.1
2022-08-07T11:03:52.491Z,25.1
2022-08-07T11:04:42.649Z,24.5
2022-08-07T11:05:50.410Z,24.4
2022-08-07T11:06:42.677Z,24.6
2022-08-07T11:08:00.530Z,24.7
2022-08-07T11:08:42.655Z,24.9
2022-08-07T11:10:09.158Z,25.1
2022-08-07T11:10:42.651Z,25.3
2022-08-07T11:11:42.756Z,25.3
2022-08-07T11:12:43.315Z,25.5
2022-08-07T11:14:45.253Z,25.4
2022-08-07T11:15:00.288Z,25.2
2022-08-07T11:15:42.646Z,25.1
2022-08-07T11:16:42.660Z,25
2022-08-07T11:17:45.760Z,25
2022-08-07T11:18:42.669Z,24.9
2022-08-07T11:19:42.671Z,24.7
2022-08-07T11:20:42.760Z,24.6
2022-08-07T11:21:43.122Z,24.8
2022-08-07T11:22:46.259Z,24.6
2022-08-07T11:23:42.663Z,24.7
2022-08-07T11:24:45.368Z,24.9
2022-08-07T11:25:49.916Z,25.2
2022-08-07T11:26:48.065Z,25.4
2022-08-07T11:28:01.537Z,25.6
2022-08-07T11:28:42.670Z,25.6
2022-08-07T11:29:48.350Z,25.6
2022-08-07T11:30:42.696Z,25.7
2022-08-07T11:31:42.664Z,25.9
2022-08-07T11:32:42.652Z,25.7
2022-08-07T11:33:59.212Z,25.6
2022-08-07T11:34:42.700Z,25.4
2022-08-07T11:35:59.560Z,25.4
2022-08-07T11:36:42.673Z,25.3
2022-08-07T11:38:09.906Z,25.3
2022-08-07T11:38:42.700Z,25.1
2022-08-07T11:40:00.771Z,24.8
2022-08-07T11:40:42.669Z,24.6
2022-08-07T11:42:01.613Z,24.4
2022-08-07T11:42:42.669Z,24.3
2022-08-07T11:44:10.931Z,24.7
2022-08-07T11:44:52.683Z,24.9
2022-08-07T11:45:53.461Z,25.1
2022-08-07T11:46:42.677Z,25.3
2022-08-07T11:47:56.717Z,25.5
2022-08-07T11:48:54.010Z,25.7
2022-08-07T11:50:25.304Z,25.9
2022-08-07T11:50:44.750Z,25.9
2022-08-07T11:51:46.579Z,25.9
2022-08-07T11:52:42.677Z,26
2022-08-07T11:53:43.347Z,26
2022-08-07T11:54:54.773Z,26
2022-08-07T11:56:25.101Z,26
2022-08-07T11:56:42.677Z,26
2022-08-07T11:58:00.373Z,26.1
2022-08-07T11:58:42.665Z,26.2
2022-08-07T12:00:10.990Z,26
2022-08-07T12:00:42.664Z,26
2022-08-07T12:01:59.910Z,26.2
2022-08-07T12:02:52.725Z,26.2
2022-08-07T12:03:46.034Z,26.2
2022-08-07T12:04:42.682Z,26.2
2022-08-07T12:05:48.818Z,26.3
2022-08-07T12:06:50.866Z,26.2
2022-08-07T12:07:42.906Z,26.3
2022-08-07T12:08:42.712Z,26
2022-08-07T12:09:42.682Z,25.8
2022-08-07T12:10:42.713Z,25.6
2022-08-07T12:11:43.193Z,25.2
2022-08-07T12:12:42.668Z,25.2
2022-08-07T12:13:47.631Z,25.4
2022-08-07T12:14:42.678Z,25.3
2022-08-07T12:16:05.619Z,25
2022-08-07T12:16:42.731Z,24.9
2022-08-07T12:17:55.973Z,24.7
2022-08-07T12:18:45.415Z,24.7
2022-08-07T12:20:02.808Z,24.6
2022-08-07T12:20:42.682Z,24.9
2022-08-07T12:22:35.683Z,24.9
2022-08-07T12:22:56.381Z,24.8
2022-08-07T12:24:06.705Z,25.2
2022-08-07T12:24:42.703Z,25
2022-08-07T12:26:06.231Z,25.1
2022-08-07T12:26:46.859Z,24.9
2022-08-07T12:28:09.768Z,24.9
2022-08-07T12:28:45.084Z,24.8
2022-08-07T12:29:42.701Z,25
2022-08-07T12:30:46.945Z,25.2
2022-08-07T12:31:52.985Z,25.5
2022-08-07T12:32:42.668Z,25.7
2022-08-07T12:33:56.549Z,25.5
2022-08-07T12:34:49.201Z,25.4
2022-08-07T12:35:42.677Z,25.1
2022-08-07T12:36:42.708Z,25
2022-08-07T12:38:10.034Z,24.9
2022-08-07T12:38:47.237Z,24.9
2022-08-07T12:39:51.073Z,25
2022-08-07T12:40:47.696Z,25.3
2022-08-07T12:41:51.522Z,25.4
2022-08-07T12:42:55.201Z,25.6
2022-08-07T12:44:04.107Z,25.7
2022-08-07T12:44:43.046Z,26
2022-08-07T12:45:42.700Z,26.1
2022-08-07T12:46:42.695Z,26.1
2022-08-07T12:47:42.680Z,25.8
2022-08-07T12:48:52.797Z,25.4
2022-08-07T12:50:49.443Z,25
2022-08-07T12:51:51.470Z,25.2
2022-08-07T12:52:46.298Z,25.5
2022-08-07T12:54:03.304Z,25.8
2022-08-07T12:54:38.922Z,25.8
2022-08-07T12:56:02.461Z,25.6
2022-08-07T12:56:42.694Z,25.7
2022-08-07T12:58:01.074Z,25.8
2022-08-07T12:58:43.892Z,26
2022-08-07T12:59:55.443Z,25.8
2022-08-07T13:00:50.223Z,25.7
2022-08-07T13:01:42.744Z,25.5
2022-08-07T13:02:42.691Z,25.5
2022-08-07T13:04:02.623Z,25.4
2022-08-07T13:04:48.987Z,25.4
2022-08-07T13:06:03.627Z,25.2
2022-08-07T13:07:00.127Z,25.3
2022-08-07T13:08:14.624Z,25.4
2022-08-07T13:08:42.695Z,25.7
2022-08-07T13:10:17.751Z,25.6
2022-08-07T13:10:51.806Z,25.5
2022-08-07T13:12:02.005Z,25.4
2022-08-07T13:12:42.714Z,25.4
2022-08-07T13:13:46.635Z,25.4
2022-08-07T13:14:46.778Z,25.4
2022-08-07T13:15:42.706Z,25.6
2022-08-07T13:16:42.692Z,25.6
2022-08-07T13:17:42.848Z,25.8
2022-08-07T13:18:42.698Z,25.9
2022-08-07T13:19:50.775Z,26
2022-08-07T13:20:42.691Z,26.2
2022-08-07T13:21:50.539Z,26.4
2022-08-07T13:22:42.696Z,26.4
2022-08-07T13:24:04.160Z,26.4
2022-08-07T13:24:52.260Z,26.5
2022-08-07T13:25:42.689Z,26.5
2022-08-07T13:26:46.052Z,26.4
2022-08-07T13:28:14.551Z,26.4
2022-08-07T13:28:42.698Z,26.3
2022-08-07T13:29:46.973Z,26.3
2022-08-07T13:30:43.863Z,26.4